KDUA/DUA METAR and TAF weather

Enter ICAO airport designator
Station Type Date Time Source
KDUA METAR 2020/03/28 20:35 UTC NOAA

KDUA 282035Z AUTO 25015G19KT 10SM CLR 23/M03 A2981 RMK AO2


Station Type Date Time Source
KDUA Decoded METAR 2020/03/28 20:35 UTC NOAA

Durant, Eaker Field Airport, OK, United States (KDUA) 33-56-32N 096-23-40W
Mar 28, 2020 - 04:35 PM EDT / 2020.03.28 2035 UTC
Wind: from the WSW (250 degrees) at 17 MPH (15 KT) gusting to 22 MPH (19 KT):0
Visibility: 10 mile(s):0
Sky conditions: clear
Temperature: 73 F (23 C)
Dew Point: 26 F (-3 C)
Relative Humidity: 17%
Pressure (altimeter): 29.81 in. Hg (1009 hPa)
ob: KDUA 282035Z AUTO 25015G19KT 10SM CLR 23/M03 A2981 RMK AO2
cycle: 20

Station Type Date Time Source
KDUA TAF UTC NOAA

Error!

Example: see airport list